Time;durP1;ratioP1;P1;durP2;ratioP2;P2;SDS_P1;SDS_P2;PMS_P1;PMS_P2;Temp;Humidity;BMP_temperature;BMP_pressure;BME280_temperature;BME280_humidity;BME280_pressure;Samples;Min_cycle;Max_cycle;Signal;HPM_P1;HPM_P2
2022/04/02 00:01:19;;;;;;;13.70;9.07;;;2.00;99.90;;;;;;5053970;28;20033;-64
2022/04/02 00:03:45;;;;;;;13.47;9.47;;;2.00;99.90;;;;;;5054611;28;20110;-63
2022/04/02 00:06:10;;;;;;;12.37;9.03;;;2.00;99.90;;;;;;5053501;28;20071;-63
2022/04/02 00:08:36;;;;;;;14.63;9.37;;;1.90;99.90;;;;;;5052963;28;20035;-63
2022/04/02 00:11:02;;;;;;;11.23;8.90;;;1.90;99.90;;;;;;5052604;28;20025;-63
2022/04/02 00:13:30;;;;;;;14.57;9.88;;;1.90;99.90;;;;;;5052682;28;20026;-63
2022/04/02 00:15:57;;;;;;;11.57;9.23;;;1.90;99.90;;;;;;5052565;28;20377;-63
2022/04/02 00:18:22;;;;;;;14.10;10.18;;;1.90;99.90;;;;;;5052743;28;20356;-63
2022/04/02 00:20:48;;;;;;;13.93;9.83;;;1.90;99.90;;;;;;5038488;28;20032;-63
2022/04/02 00:25:58;;;;;;;12.00;8.85;;;2.00;99.90;;;;;;5056663;28;20711;-63
2022/04/02 00:28:24;;;;;;;11.32;9.00;;;1.90;99.90;;;;;;5056062;28;20064;-63
2022/04/02 00:30:49;;;;;;;12.97;9.57;;;1.90;99.90;;;;;;5055687;28;20039;-64
2022/04/02 00:33:15;;;;;;;13.37;9.77;;;1.90;99.90;;;;;;5038064;28;20020;-64
2022/04/02 00:35:41;;;;;;;12.77;10.13;;;1.90;99.90;;;;;;5055938;28;20468;-61
2022/04/02 00:38:07;;;;;;;11.90;9.23;;;1.90;99.90;;;;;;5056180;28;20025;-63
2022/04/02 00:40:32;;;;;;;11.93;9.67;;;1.90;99.90;;;;;;5056033;28;20123;-63
2022/04/02 00:42:58;;;;;;;14.93;10.47;;;1.90;99.90;;;;;;5056300;28;20033;-64
2022/04/02 00:45:24;;;;;;;13.00;9.50;;;1.90;99.90;;;;;;5055792;28;20111;-64
2022/04/02 00:47:49;;;;;;;12.70;8.83;;;1.90;99.90;;;;;;5055716;28;20029;-64
2022/04/02 00:50:15;;;;;;;13.90;8.80;;;1.90;99.90;;;;;;5055526;28;20028;-63
2022/04/02 00:52:40;;;;;;;11.60;9.23;;;1.90;99.90;;;;;;5055735;28;20089;-63
2022/04/02 00:55:06;;;;;;;15.80;9.57;;;1.80;99.90;;;;;;5055703;28;20040;-63
2022/04/02 00:57:34;;;;;;;13.75;9.93;;;1.80;99.90;;;;;;5055840;28;20025;-65
2022/04/02 01:00:00;;;;;;;12.35;9.48;;;1.80;99.90;;;;;;5055544;28;20032;-63
2022/04/02 01:02:25;;;;;;;12.85;9.48;;;1.70;99.90;;;;;;5055518;28;20028;-63
2022/04/02 01:04:54;;;;;;;15.03;9.57;;;1.80;99.90;;;;;;5055413;28;20026;-63
2022/04/02 01:07:21;;;;;;;12.63;9.55;;;1.80;99.90;;;;;;5055609;28;20263;-63
2022/04/02 01:09:46;;;;;;;13.77;9.93;;;1.70;99.90;;;;;;5055331;28;20460;-63
2022/04/02 01:12:12;;;;;;;12.20;10.10;;;1.70;99.90;;;;;;5055279;28;20032;-63
2022/04/02 01:14:38;;;;;;;13.20;10.15;;;1.70;99.90;;;;;;5055365;28;20025;-63
2022/04/02 01:17:05;;;;;;;13.93;10.63;;;1.70;99.90;;;;;;5055095;28;20476;-63
2022/04/02 01:19:32;;;;;;;15.20;10.13;;;1.70;99.90;;;;;;5037050;28;20268;-63
2022/04/02 01:21:57;;;;;;;13.52;10.07;;;1.70;99.90;;;;;;5055520;28;20025;-63
2022/04/02 01:24:23;;;;;;;15.67;11.73;;;1.60;99.90;;;;;;5055060;28;20025;-63
2022/04/02 01:26:49;;;;;;;14.23;10.80;;;1.60;99.90;;;;;;5055414;28;20107;-63
2022/04/02 01:29:14;;;;;;;12.93;10.63;;;1.60;99.90;;;;;;5054614;28;20055;-63
2022/04/02 01:31:44;;;;;;;14.47;11.23;;;1.50;99.90;;;;;;5055283;28;20119;-62
2022/04/02 01:34:10;;;;;;;13.60;10.95;;;1.60;99.90;;;;;;5055370;28;20086;-63
2022/04/02 01:36:35;;;;;;;15.10;11.20;;;1.60;99.90;;;;;;5055334;28;20021;-63
2022/04/02 01:39:02;;;;;;;13.43;10.80;;;1.60;99.90;;;;;;5055195;28;20096;-63
2022/04/02 01:41:27;;;;;;;13.40;10.18;;;1.60;99.90;;;;;;5055445;28;20025;-63
2022/04/02 01:43:53;;;;;;;15.93;11.53;;;1.60;99.90;;;;;;5037615;28;20129;-61
2022/04/02 01:46:18;;;;;;;16.07;10.73;;;1.60;99.90;;;;;;5055078;28;20029;-62
2022/04/02 01:48:45;;;;;;;15.87;10.33;;;1.60;99.90;;;;;;5055175;28;20502;-62
2022/04/02 01:51:12;;;;;;;14.10;10.55;;;1.60;99.90;;;;;;5054587;28;20017;-62
2022/04/02 01:53:38;;;;;;;14.90;10.60;;;1.60;99.90;;;;;;5054964;28;20017;-63
2022/04/02 01:56:07;;;;;;;13.53;10.50;;;1.60;99.90;;;;;;5054863;28;20021;-63
2022/04/02 01:58:32;;;;;;;15.30;10.82;;;1.60;99.90;;;;;;5036623;28;20029;-62
2022/04/02 02:00:58;;;;;;;16.00;10.37;;;1.50;99.90;;;;;;5036636;28;20041;-62
2022/04/02 02:03:24;;;;;;;14.77;10.87;;;1.60;99.90;;;;;;5054472;28;20025;-63
2022/04/02 02:05:50;;;;;;;13.77;10.73;;;1.50;99.90;;;;;;5054304;28;20364;-63
2022/04/02 02:08:16;;;;;;;13.98;10.27;;;1.60;99.90;;;;;;5054090;28;20091;-63
2022/04/02 02:10:42;;;;;;;12.85;10.25;;;1.60;99.90;;;;;;5054056;28;20495;-63
2022/04/02 02:13:08;;;;;;;14.60;10.73;;;1.60;99.90;;;;;;5054271;28;20039;-63
2022/04/02 02:15:34;;;;;;;17.23;11.00;;;1.60;99.90;;;;;;5054348;28;20021;-63
2022/04/02 02:17:59;;;;;;;14.30;10.60;;;1.60;99.90;;;;;;5054669;28;20480;-63
2022/04/02 02:20:25;;;;;;;13.57;11.00;;;1.60;99.90;;;;;;5055003;28;20032;-63
2022/04/02 02:22:50;;;;;;;15.63;10.83;;;1.60;99.90;;;;;;5054556;28;20029;-63
2022/04/02 02:25:17;;;;;;;15.70;10.97;;;1.60;99.90;;;;;;5054189;28;20020;-62
2022/04/02 02:27:45;;;;;;;15.43;11.15;;;1.60;99.90;;;;;;5053747;28;20033;-63
2022/04/02 02:30:12;;;;;;;16.02;11.63;;;1.60;99.90;;;;;;5053422;28;20082;-63
2022/04/02 02:32:39;;;;;;;14.55;11.18;;;1.60;99.90;;;;;;5053571;28;20021;-63
2022/04/02 02:38:08;;;;;;;15.00;10.88;;;1.60;99.90;;;;;;5054414;28;20106;-63
2022/04/02 02:40:35;;;;;;;14.77;10.85;;;1.60;99.90;;;;;;5053900;28;20037;-63
2022/04/02 02:43:01;;;;;;;16.27;11.52;;;1.60;99.90;;;;;;5053158;28;20044;-65
2022/04/02 02:45:27;;;;;;;14.27;10.87;;;1.60;99.90;;;;;;5053725;28;20489;-62
2022/04/02 02:47:53;;;;;;;;;;;1.50;99.90;;;;;;5053843;28;20021;-63
2022/04/02 02:50:20;;;;;;;16.23;11.20;;;1.60;99.90;;;;;;5053222;28;19912;-63
2022/04/02 02:52:46;;;;;;;18.55;12.70;;;1.60;99.90;;;;;;5053395;28;20049;-63
2022/04/02 02:55:12;;;;;;;16.10;11.90;;;1.60;99.90;;;;;;5035329;28;20056;-63
2022/04/02 02:57:42;;;;;;;17.03;12.93;;;1.50;99.90;;;;;;5053216;28;20021;-63
2022/04/02 03:00:09;;;;;;;17.10;13.02;;;1.50;99.90;;;;;;5053061;28;20621;-63
2022/04/02 03:02:37;;;;;;;17.35;13.05;;;1.60;99.90;;;;;;5053176;28;20037;-63
2022/04/02 03:05:10;;;;;;;20.83;13.07;;;1.60;99.90;;;;;;5053341;28;20021;-63
2022/04/02 03:07:50;;;;;;;18.42;12.93;;;1.60;99.90;;;;;;5053457;28;20108;-63
2022/04/02 03:10:23;;;;;;;17.15;13.18;;;1.60;99.90;;;;;;5053274;28;20029;-64
2022/04/02 03:12:53;;;;;;;16.95;12.85;;;1.60;99.90;;;;;;5053026;28;20052;-63
2022/04/02 03:15:19;;;;;;;17.83;12.40;;;1.60;99.90;;;;;;5053660;28;20549;-63
2022/04/02 03:17:46;;;;;;;16.05;12.43;;;1.60;99.90;;;;;;5053080;28;20044;-64
2022/04/02 03:20:13;;;;;;;15.48;12.52;;;1.60;99.90;;;;;;5052809;28;20071;-63
2022/04/02 03:22:40;;;;;;;17.70;12.75;;;1.50;99.90;;;;;;5053122;28;20136;-63
2022/04/02 03:25:10;;;;;;;18.60;13.90;;;1.50;99.90;;;;;;5052878;28;20059;-63
2022/04/02 03:27:38;;;;;;;16.98;12.57;;;1.50;99.90;;;;;;5053024;28;20433;-63
2022/04/02 03:30:05;;;;;;;19.40;14.27;;;1.50;99.90;;;;;;5052372;28;20483;-63
2022/04/02 03:32:31;;;;;;;18.80;13.13;;;1.40;99.90;;;;;;5052889;28;20028;-63
2022/04/02 03:34:57;;;;;;;15.83;12.37;;;1.40;99.90;;;;;;5052802;28;20021;-63
2022/04/02 03:37:24;;;;;;;17.52;12.80;;;1.40;99.90;;;;;;5052704;28;20036;-63
2022/04/02 03:39:50;;;;;;;18.42;13.68;;;1.50;99.90;;;;;;5052786;28;20087;-64
2022/04/02 03:42:16;;;;;;;19.63;12.88;;;1.50;99.90;;;;;;5052861;28;20115;-63
2022/04/02 03:44:42;;;;;;;16.08;11.90;;;1.50;99.90;;;;;;5052659;28;20033;-62
2022/04/02 03:47:10;;;;;;;17.00;12.43;;;1.50;99.90;;;;;;5053695;28;20060;-63
2022/04/02 03:49:37;;;;;;;16.85;12.38;;;1.60;99.90;;;;;;5052781;28;20361;-62
2022/04/02 03:52:03;;;;;;;18.60;13.18;;;1.60;99.90;;;;;;5052509;28;20087;-63
2022/04/02 03:54:29;;;;;;;19.27;12.90;;;1.60;99.90;;;;;;5056509;28;20487;-63
2022/04/02 03:56:54;;;;;;;15.83;12.67;;;1.60;99.90;;;;;;5038833;28;20359;-63
2022/04/02 03:59:20;;;;;;;15.67;12.47;;;1.60;99.90;;;;;;5056739;28;20092;-63
2022/04/02 04:01:46;;;;;;;15.93;11.80;;;1.60;99.90;;;;;;5056643;28;20025;-62
2022/04/02 04:04:12;;;;;;;16.23;12.17;;;1.60;99.90;;;;;;5056941;28;20479;-62
2022/04/02 04:06:37;;;;;;;18.55;11.75;;;1.50;99.90;;;;;;5039771;28;20494;-63
2022/04/02 04:09:04;;;;;;;15.38;12.13;;;1.50;99.90;;;;;;5057573;28;20033;-63
2022/04/02 04:11:29;;;;;;;14.18;10.27;;;1.50;99.90;;;;;;5057163;28;20033;-63
2022/04/02 04:13:56;;;;;;;16.17;11.93;;;1.60;99.90;;;;;;5057783;28;20486;-62
2022/04/02 04:16:22;;;;;;;14.63;10.93;;;1.60;99.90;;;;;;5057139;28;20021;-63
2022/04/02 04:18:48;;;;;;;16.85;11.05;;;1.60;99.90;;;;;;5056901;28;20032;-63
2022/04/02 04:21:14;;;;;;;15.83;11.00;;;1.50;99.90;;;;;;5057133;28;20095;-62
2022/04/02 04:23:43;;;;;;;12.95;9.75;;;1.50;99.90;;;;;;5040000;28;20029;-63
2022/04/02 04:26:09;;;;;;;13.73;10.60;;;1.50;99.90;;;;;;5057471;28;20033;-62
2022/04/02 04:28:36;;;;;;;15.85;10.77;;;1.50;99.90;;;;;;5057240;28;20032;-63
2022/04/02 04:31:02;;;;;;;11.43;9.68;;;1.50;99.90;;;;;;5056388;28;20044;-63
2022/04/02 04:33:28;;;;;;;13.53;10.53;;;1.50;99.90;;;;;;5038099;28;20057;-63
2022/04/02 04:35:53;;;;;;;13.57;10.52;;;1.50;99.90;;;;;;5055933;28;20021;-63
2022/04/02 04:38:19;;;;;;;12.63;9.90;;;1.50;99.90;;;;;;5055892;28;20025;-63
2022/04/02 04:40:44;;;;;;;13.43;10.37;;;1.50;99.90;;;;;;5055762;28;20424;-63
2022/04/02 04:43:10;;;;;;;13.83;9.80;;;1.40;99.90;;;;;;5055718;28;20091;-63
2022/04/02 04:45:36;;;;;;;14.23;9.67;;;1.40;99.90;;;;;;5055868;28;20037;-63
2022/04/02 04:48:01;;;;;;;13.57;10.30;;;1.40;99.90;;;;;;5055628;28;20025;-63
2022/04/02 04:50:27;;;;;;;16.27;10.52;;;1.40;99.90;;;;;;5055602;28;20031;-63
2022/04/02 04:52:53;;;;;;;15.90;11.60;;;1.40;99.90;;;;;;5055623;28;20108;-63
2022/04/02 04:55:18;;;;;;;15.07;10.47;;;1.40;99.90;;;;;;5055600;28;20029;-62
2022/04/02 04:57:44;;;;;;;13.43;10.13;;;1.40;99.90;;;;;;5055574;28;20055;-62
2022/04/02 05:00:10;;;;;;;16.80;11.10;;;1.30;99.90;;;;;;5055409;28;20048;-63
2022/04/02 05:02:36;;;;;;;14.52;10.10;;;1.40;99.90;;;;;;5055635;28;20035;-63
2022/04/02 05:05:02;;;;;;;18.17;11.70;;;1.30;99.90;;;;;;5055128;28;20025;-63
2022/04/02 05:07:28;;;;;;;15.25;10.73;;;1.40;99.90;;;;;;5055542;28;20021;-62
2022/04/02 05:09:54;;;;;;;16.33;11.60;;;1.30;99.90;;;;;;5055405;28;20482;-62
2022/04/02 05:12:20;;;;;;;13.98;11.40;;;1.30;99.90;;;;;;5055525;28;20033;-64
2022/04/02 05:14:46;;;;;;;14.80;11.35;;;1.30;99.90;;;;;;5055406;28;20124;-63
2022/04/02 05:17:12;;;;;;;16.58;11.57;;;1.20;99.90;;;;;;5055705;28;20044;-63
2022/04/02 05:19:38;;;;;;;16.07;11.63;;;1.20;99.90;;;;;;5055298;28;20484;-63
2022/04/02 05:22:03;;;;;;;18.67;12.63;;;1.20;99.90;;;;;;5055300;28;20391;-63
2022/04/02 05:24:29;;;;;;;17.48;13.45;;;1.20;99.90;;;;;;5055033;28;20021;-63
2022/04/02 05:26:55;;;;;;;20.20;12.43;;;1.30;99.90;;;;;;5055102;28;20022;-62
2022/04/02 05:29:21;;;;;;;19.10;14.27;;;1.20;99.90;;;;;;5054947;28;20031;-63
2022/04/02 05:31:47;;;;;;;19.77;13.50;;;1.20;99.90;;;;;;5055441;28;20036;-63
2022/04/02 05:34:12;;;;;;;20.85;13.55;;;1.20;99.90;;;;;;5054932;28;20074;-63
2022/04/02 05:36:41;;;;;;;22.03;14.60;;;1.30;99.90;;;;;;5054873;28;20112;-63
2022/04/02 05:39:07;;;;;;;17.88;13.55;;;1.20;99.90;;;;;;5036828;28;20078;-62
2022/04/02 05:41:32;;;;;;;19.20;13.27;;;1.20;99.90;;;;;;5056163;28;20033;-62
2022/04/02 05:43:58;;;;;;;18.20;13.43;;;1.20;99.90;;;;;;5057064;28;20104;-62
2022/04/02 05:46:23;;;;;;;18.70;12.97;;;1.20;99.90;;;;;;5056071;28;20029;-61
2022/04/02 05:48:49;;;;;;;18.07;11.70;;;1.30;99.90;;;;;;5055650;28;20105;-62
2022/04/02 05:51:15;;;;;;;18.93;13.00;;;1.30;99.90;;;;;;5054739;28;20040;-62
2022/04/02 05:53:40;;;;;;;20.48;13.07;;;1.30;99.90;;;;;;5055106;28;20147;-63
2022/04/02 05:56:06;;;;;;;16.83;12.67;;;1.20;99.90;;;;;;5055321;28;20353;-63
2022/04/02 05:58:32;;;;;;;18.33;12.52;;;1.30;99.90;;;;;;5054728;28;20361;-62
2022/04/02 06:00:58;;;;;;;15.90;12.37;;;1.30;99.90;;;;;;5055123;28;20033;-62
2022/04/02 06:03:24;;;;;;;22.40;12.60;;;1.30;99.90;;;;;;5055083;28;20282;-62
2022/04/02 06:05:50;;;;;;;16.70;13.05;;;1.30;99.90;;;;;;5054612;28;20263;-62
2022/04/02 06:08:16;;;;;;;16.85;12.13;;;1.30;99.90;;;;;;5054335;28;20037;-60
2022/04/02 06:10:45;;;;;;;;;;;1.30;99.90;;;;;;5036847;28;20033;-63
2022/04/02 06:13:10;;;;;;;16.17;11.70;;;1.30;99.90;;;;;;5054844;28;19905;-63
2022/04/02 06:15:36;;;;;;;15.57;10.43;;;1.30;99.90;;;;;;5055422;28;20029;-63
2022/04/02 06:18:02;;;;;;;16.20;10.87;;;1.30;99.90;;;;;;5057676;28;20133;-63
2022/04/02 06:20:28;;;;;;;15.10;10.82;;;1.30;99.90;;;;;;5057509;28;20025;-63
2022/04/02 06:22:54;;;;;;;14.75;11.52;;;1.30;99.90;;;;;;5057933;28;20493;-63
2022/04/02 06:25:20;;;;;;;13.60;10.27;;;1.30;99.90;;;;;;5059122;28;20043;-63
2022/04/02 06:27:47;;;;;;;14.67;10.67;;;1.30;99.90;;;;;;5059298;28;20057;-63
2022/04/02 06:30:16;;;;;;;12.82;9.98;;;1.30;99.90;;;;;;5057786;28;20041;-63
2022/04/02 06:32:42;;;;;;;15.60;10.32;;;1.30;99.90;;;;;;5057304;28;20021;-63
2022/04/02 06:35:08;;;;;;;16.13;10.43;;;1.30;99.90;;;;;;5057769;28;20502;-63
2022/04/02 06:37:40;;;;;;;14.82;9.70;;;1.40;99.90;;;;;;5058274;28;20029;-63
2022/04/02 06:40:09;;;;;;;13.38;9.95;;;1.40;99.90;;;;;;5057509;28;20471;-64
2022/04/02 06:42:35;;;;;;;13.00;10.10;;;1.50;99.90;;;;;;5037800;28;20518;-64
2022/04/02 06:45:01;;;;;;;13.65;9.93;;;1.50;99.90;;;;;;5053604;28;20025;-63
2022/04/02 06:47:29;;;;;;;13.27;9.10;;;1.60;99.90;;;;;;5053660;28;20029;-63
2022/04/02 06:49:55;;;;;;;13.02;9.48;;;1.50;99.90;;;;;;5053539;28;20021;-64
2022/04/02 06:52:22;;;;;;;15.48;9.20;;;1.50;99.90;;;;;;5053636;28;20070;-65
2022/04/02 06:54:48;;;;;;;14.07;9.13;;;1.40;99.90;;;;;;5053700;28;20526;-64
2022/04/02 06:57:21;;;;;;;14.25;9.18;;;1.40;99.90;;;;;;5053289;28;20549;-62
2022/04/02 06:59:46;;;;;;;12.32;9.02;;;1.40;99.90;;;;;;5035436;28;20039;-63
2022/04/02 07:02:13;;;;;;;14.70;9.30;;;1.40;99.90;;;;;;5053430;28;20021;-62
2022/04/02 07:04:39;;;;;;;11.30;8.73;;;1.50;99.90;;;;;;5053256;28;20266;-63
2022/04/02 07:07:04;;;;;;;12.10;9.65;;;1.40;99.90;;;;;;5053301;28;20025;-62
2022/04/02 07:09:30;;;;;;;12.73;9.17;;;1.50;99.90;;;;;;5053178;28;20029;-62
2022/04/02 07:11:56;;;;;;;11.60;9.10;;;1.40;99.90;;;;;;5053092;28;20029;-64
2022/04/02 07:14:22;;;;;;;9.20;7.63;;;1.50;99.90;;;;;;5053598;28;20530;-64
2022/04/02 07:16:48;;;;;;;12.25;9.13;;;1.50;99.90;;;;;;5053480;28;20358;-63
2022/04/02 07:19:14;;;;;;;12.77;9.32;;;1.50;99.90;;;;;;5052995;28;20103;-63
2022/04/02 07:21:43;;;;;;;12.68;8.75;;;1.40;99.90;;;;;;5053059;28;20056;-62
2022/04/02 07:24:10;;;;;;;13.82;9.38;;;1.50;99.90;;;;;;5052823;28;20025;-64
2022/04/02 07:26:37;;;;;;;13.63;10.18;;;1.50;99.90;;;;;;5053051;28;20135;-64
2022/04/02 07:29:03;;;;;;;13.75;9.55;;;1.50;99.90;;;;;;5052107;28;20036;-63
2022/04/02 07:31:29;;;;;;;16.17;10.40;;;1.60;99.90;;;;;;5052637;28;20040;-64
2022/04/02 07:33:55;;;;;;;14.27;9.80;;;1.60;99.90;;;;;;5052620;28;20033;-65
2022/04/02 07:36:59;;;;;;;13.23;9.67;;;1.60;99.90;;;;;;5052761;28;20483;-64
2022/04/02 07:39:42;;;;;;;15.57;9.90;;;1.60;99.90;;;;;;5052656;28;20264;-70
2022/04/02 07:42:14;;;;;;;13.48;9.38;;;1.60;99.90;;;;;;5052880;28;20479;-65
2022/04/02 07:45:07;;;;;;;14.68;10.63;;;1.70;99.90;;;;;;5053179;28;20069;-64
2022/04/02 07:47:38;;;;;;;10.57;8.65;;;1.70;99.90;;;;;;5048919;28;20037;-65
2022/04/02 07:50:14;;;;;;;14.80;9.68;;;1.70;99.90;;;;;;5052923;28;20418;-68
2022/04/02 07:52:45;;;;;;;15.27;10.05;;;1.80;99.90;;;;;;5054940;28;20029;-66
2022/04/02 07:55:12;;;;;;;13.05;9.00;;;1.80;99.90;;;;;;5056447;28;20017;-67
2022/04/02 07:57:41;;;;;;;10.93;8.02;;;1.90;99.90;;;;;;5055521;28;20017;-67
2022/04/02 08:00:10;;;;;;;13.35;8.68;;;2.00;99.90;;;;;;5052782;28;20075;-64
2022/04/02 08:02:37;;;;;;;19.67;10.32;;;2.00;99.90;;;;;;5052911;28;20079;-63
2022/04/02 08:05:06;;;;;;;14.93;8.30;;;2.00;99.90;;;;;;5052860;28;20025;-64
2022/04/02 08:07:33;;;;;;;15.82;9.90;;;1.90;99.90;;;;;;5052509;28;20031;-62
2022/04/02 08:10:01;;;;;;;11.63;8.68;;;2.00;99.90;;;;;;5052324;28;20071;-63
2022/04/02 08:12:28;;;;;;;12.85;8.60;;;2.00;99.90;;;;;;5034725;28;20031;-64
2022/04/02 08:14:54;;;;;;;13.02;8.57;;;2.00;99.90;;;;;;5052522;28;20032;-64
2022/04/02 08:17:23;;;;;;;13.70;9.00;;;2.00;99.90;;;;;;5052380;28;20028;-64
2022/04/02 08:19:50;;;;;;;14.05;9.40;;;2.10;99.90;;;;;;5052380;28;20028;-64
2022/04/02 08:22:16;;;;;;;10.50;8.25;;;2.00;99.90;;;;;;5052351;28;20517;-65
2022/04/02 08:24:43;;;;;;;14.13;9.23;;;2.10;99.90;;;;;;5052313;28;20391;-65
2022/04/02 08:27:28;;;;;;;10.60;8.07;;;2.10;99.90;;;;;;5034505;28;20029;-64
2022/04/02 08:30:05;;;;;;;12.43;8.65;;;2.20;99.90;;;;;;5052176;28;20399;-64
2022/04/02 08:32:49;;;;;;;;;;;2.10;99.90;;;;;;5052651;28;20017;-65
2022/04/02 08:35:23;;;;;;;9.90;7.90;;;2.20;99.90;;;;;;5052421;28;19908;-65
2022/04/02 08:38:23;;;;;;;12.73;8.90;;;2.10;99.90;;;;;;5052680;28;20018;-65
2022/04/02 08:41:13;;;;;;;11.48;8.20;;;2.20;99.90;;;;;;5054580;28;20027;-65
2022/04/02 08:43:47;;;;;;;14.68;8.43;;;2.30;99.90;;;;;;5056443;28;20027;-64
2022/04/02 08:46:32;;;;;;;9.77;8.18;;;2.20;99.90;;;;;;5057004;28;20028;-66
2022/04/02 08:49:04;;;;;;;12.73;8.68;;;2.20;99.90;;;;;;5056163;28;20466;-64
2022/04/02 08:51:45;;;;;;;13.27;8.63;;;2.20;99.90;;;;;;5037896;28;20037;-66
2022/04/02 08:54:24;;;;;;;10.70;8.18;;;2.20;99.90;;;;;;5055854;28;20056;-65
2022/04/02 08:56:55;;;;;;;10.50;7.03;;;2.20;99.90;;;;;;5055936;28;20033;-66
2022/04/02 08:59:35;;;;;;;11.02;8.00;;;2.20;99.90;;;;;;5037367;28;20028;-64
2022/04/02 09:02:19;;;;;;;12.52;8.13;;;2.20;99.90;;;;;;5055176;28;20387;-65
2022/04/02 09:05:08;;;;;;;14.48;8.40;;;2.30;99.90;;;;;;5055466;28;20029;-65
2022/04/02 09:07:52;;;;;;;11.23;7.30;;;2.40;99.90;;;;;;5055640;28;20487;-65
2022/04/02 09:10:25;;;;;;;12.93;6.90;;;2.30;99.90;;;;;;5055207;28;20489;-65
2022/04/02 09:13:00;;;;;;;15.45;8.25;;;2.40;99.90;;;;;;5037204;28;20021;-66
2022/04/02 09:16:01;;;;;;;9.23;7.32;;;2.40;99.90;;;;;;5055437;28;20024;-65
2022/04/02 09:18:46;;;;;;;8.25;6.35;;;2.60;99.90;;;;;;5038284;28;20027;-65
2022/04/02 09:21:39;;;;;;;9.57;6.60;;;2.60;99.90;;;;;;5054942;28;20373;-66
2022/04/02 09:24:13;;;;;;;10.50;6.88;;;2.70;99.90;;;;;;5055323;28;20025;-65
2022/04/02 09:26:39;;;;;;;10.45;5.97;;;2.60;99.90;;;;;;5055241;28;20439;-65
2022/04/02 09:29:25;;;;;;;13.60;8.10;;;2.60;99.90;;;;;;5054733;28;20029;-64
2022/04/02 09:31:54;;;;;;;6.72;5.78;;;2.60;99.90;;;;;;5037526;28;20025;-64
2022/04/02 09:34:43;;;;;;;9.85;5.50;;;2.40;99.90;;;;;;5054842;28;20032;-64
2022/04/02 09:37:41;;;;;;;9.02;5.80;;;2.40;99.90;;;;;;5054858;28;20032;-65
2022/04/02 09:40:11;;;;;;;10.05;6.07;;;2.30;99.90;;;;;;5055330;28;20172;-65
2022/04/02 09:42:44;;;;;;;9.40;5.38;;;2.20;99.90;;;;;;5056061;28;20422;-65
2022/04/02 09:45:13;;;;;;;9.55;5.22;;;2.20;99.90;;;;;;5055022;28;20147;-65
2022/04/02 09:47:47;;;;;;;10.05;6.40;;;2.20;99.90;;;;;;5055350;28;20430;-65
2022/04/02 09:50:16;;;;;;;12.45;7.13;;;2.20;99.90;;;;;;5054262;28;20474;-65
2022/04/02 09:52:53;;;;;;;10.98;6.10;;;2.20;99.90;;;;;;5054515;28;20048;-65
2022/04/02 09:55:23;;;;;;;;;;;2.30;99.90;;;;;;5055125;28;20021;-65
2022/04/02 09:58:16;;;;;;;7.20;5.28;;;2.30;99.90;;;;;;5054387;28;20294;-66
2022/04/02 10:00:58;;;;;;;8.60;5.55;;;2.30;99.90;;;;;;5054141;28;20031;-65
2022/04/02 10:03:44;;;;;;;7.82;5.53;;;2.40;99.90;;;;;;5054338;28;20033;-65
2022/04/02 10:06:26;;;;;;;9.60;6.15;;;2.50;99.90;;;;;;5054870;28;20058;-65
2022/04/02 10:09:03;;;;;;;7.72;5.43;;;2.50;99.90;;;;;;5054395;28;20025;-65
2022/04/02 10:11:30;;;;;;;9.48;5.90;;;2.50;99.90;;;;;;5054165;28;20029;-65
2022/04/02 10:14:00;;;;;;;11.20;6.25;;;2.60;99.90;;;;;;5053912;28;20104;-65
2022/04/02 10:16:27;;;;;;;7.90;5.80;;;2.50;99.90;;;;;;5036190;28;20052;-65
2022/04/02 10:18:55;;;;;;;9.98;5.97;;;2.50;99.90;;;;;;5053802;28;20051;-67
2022/04/02 10:21:21;;;;;;;10.13;6.22;;;2.50;99.90;;;;;;5053971;28;20029;-66
2022/04/02 10:23:57;;;;;;;9.63;6.03;;;2.40;99.90;;;;;;5036019;28;20047;-66
2022/04/02 10:26:23;;;;;;;10.70;5.85;;;2.40;99.90;;;;;;5036100;28;20032;-65
2022/04/02 10:28:55;;;;;;;8.57;6.28;;;2.40;99.90;;;;;;5053881;28;20028;-65
2022/04/02 10:31:56;;;;;;;10.85;6.13;;;2.30;99.90;;;;;;5054323;28;20033;-66
2022/04/02 10:34:37;;;;;;;9.82;6.40;;;2.40;99.90;;;;;;5054012;28;20096;-66
2022/04/02 10:37:11;;;;;;;11.15;6.78;;;2.40;99.90;;;;;;5054219;28;20416;-65
2022/04/02 10:40:00;;;;;;;11.57;6.25;;;2.40;99.90;;;;;;5054200;28;20044;-65
2022/04/02 10:42:41;;;;;;;10.00;6.47;;;2.30;99.90;;;;;;5054470;28;20028;-65
2022/04/02 10:45:12;;;;;;;9.05;5.90;;;2.30;99.90;;;;;;5054085;28;20033;-66
2022/04/02 10:47:51;;;;;;;7.30;5.70;;;2.30;99.90;;;;;;5053488;28;20040;-65
2022/04/02 10:50:19;;;;;;;9.55;6.78;;;2.40;99.90;;;;;;5035576;28;20040;-65
2022/04/02 10:52:48;;;;;;;9.55;6.00;;;2.40;99.90;;;;;;5053499;28;20025;-66
2022/04/02 10:55:21;;;;;;;19.55;11.60;;;2.40;99.90;;;;;;5054024;28;20036;-65
2022/04/02 10:57:47;;;;;;;8.68;5.82;;;2.40;99.90;;;;;;5036347;28;20017;-66
2022/04/02 11:00:13;;;;;;;10.57;6.78;;;2.30;99.90;;;;;;5053680;28;20021;-65
2022/04/02 11:02:41;;;;;;;8.30;5.78;;;2.40;99.90;;;;;;5052757;28;20029;-66
2022/04/02 11:05:09;;;;;;;10.23;5.90;;;2.40;99.90;;;;;;5053405;28;20085;-66
2022/04/02 11:07:46;;;;;;;8.15;5.80;;;2.40;99.90;;;;;;5053266;28;20048;-65
2022/04/02 11:10:13;;;;;;;7.63;5.75;;;2.40;99.90;;;;;;5053310;28;20101;-66
2022/04/02 11:12:44;;;;;;;9.32;6.75;;;2.30;99.90;;;;;;5053684;28;20108;-65
2022/04/02 11:15:17;;;;;;;9.32;5.95;;;2.40;99.90;;;;;;5053554;28;20029;-66
2022/04/02 11:17:46;;;;;;;8.85;6.25;;;2.40;99.90;;;;;;5053062;28;20087;-66
2022/04/02 11:20:22;;;;;;;8.00;5.88;;;2.50;99.90;;;;;;5052959;28;20017;-67
2022/04/02 11:22:55;;;;;;;9.10;6.60;;;2.40;99.90;;;;;;5052921;28;20039;-67
2022/04/02 11:25:32;;;;;;;15.18;8.23;;;2.40;99.90;;;;;;5052761;28;20025;-66
2022/04/02 11:28:17;;;;;;;8.15;6.53;;;2.50;99.90;;;;;;5035631;28;20369;-66
2022/04/02 11:30:46;;;;;;;11.70;6.85;;;2.50;99.90;;;;;;5052564;28;20033;-66
2022/04/02 11:33:25;;;;;;;10.77;6.78;;;2.50;99.90;;;;;;5052841;28;20104;-66
2022/04/02 11:35:52;;;;;;;13.63;6.43;;;2.60;99.90;;;;;;5052856;28;20541;-67
2022/04/02 11:38:21;;;;;;;11.80;6.95;;;2.50;99.90;;;;;;5052661;28;20024;-67
2022/04/02 11:40:59;;;;;;;9.13;6.82;;;2.40;99.90;;;;;;5034723;28;20124;-66
2022/04/02 11:43:38;;;;;;;17.30;7.50;;;2.30;99.90;;;;;;5053409;28;20043;-66
2022/04/02 11:46:10;;;;;;;14.05;7.57;;;2.20;99.90;;;;;;5053484;28;20052;-66
2022/04/02 11:48:48;;;;;;;15.32;7.72;;;2.30;99.90;;;;;;5053171;28;20387;-66
2022/04/02 11:51:16;;;;;;;11.10;6.70;;;2.40;99.90;;;;;;5054231;28;20063;-66
2022/04/02 11:53:43;;;;;;;9.10;6.47;;;2.30;99.90;;;;;;5054222;28;20055;-66
2022/04/02 11:56:21;;;;;;;;;;;2.30;99.90;;;;;;5054146;28;20024;-66
2022/04/02 11:58:48;;;;;;;11.20;6.50;;;2.40;99.90;;;;;;5053008;28;19905;-67
2022/04/02 12:01:14;;;;;;;;;;;2.40;99.90;;;;;;5053281;28;20025;-66
2022/04/02 12:03:41;;;;;;;9.10;6.50;;;2.40;99.90;;;;;;5052394;28;19915;-66
2022/04/02 12:06:13;;;;;;;10.95;6.45;;;2.40;99.90;;;;;;5052634;28;20032;-66
2022/04/02 12:08:43;;;;;;;8.65;5.80;;;2.50;99.90;;;;;;5052946;28;20029;-66
2022/04/02 12:11:10;;;;;;;8.15;6.25;;;2.50;99.90;;;;;;5052591;28;20032;-66
2022/04/02 12:13:36;;;;;;;15.55;9.63;;;2.50;99.90;;;;;;5053071;28;20017;-66
2022/04/02 12:16:09;;;;;;;17.88;8.48;;;2.60;99.90;;;;;;5037760;28;20025;-66
2022/04/02 12:18:52;;;;;;;10.35;6.22;;;2.70;99.90;;;;;;5038928;28;20036;-66
2022/04/02 12:21:29;;;;;;;9.75;6.72;;;2.70;99.90;;;;;;5057937;28;20533;-66
2022/04/02 12:23:56;;;;;;;10.35;5.80;;;2.80;99.90;;;;;;5058332;28;20036;-65
2022/04/02 12:26:24;;;;;;;11.35;6.80;;;2.60;99.90;;;;;;5057986;28;20095;-65
2022/04/02 12:28:58;;;;;;;8.93;6.57;;;2.60;99.90;;;;;;5039282;28;20078;-66
2022/04/02 12:31:27;;;;;;;9.18;6.78;;;2.70;99.90;;;;;;5057765;28;20056;-66
2022/04/02 12:33:54;;;;;;;8.73;6.68;;;2.50;99.90;;;;;;5057292;28;20100;-66
2022/04/02 12:36:51;;;;;;;10.30;6.97;;;2.30;99.90;;;;;;5057225;28;20025;-66
2022/04/02 12:39:19;;;;;;;10.13;7.00;;;2.20;99.90;;;;;;4956636;29;20460;-66
2022/04/02 12:41:49;;;;;;;13.60;7.32;;;2.20;99.90;;;;;;4956521;29;20099;-66
2022/04/02 12:44:19;;;;;;;11.70;7.07;;;2.20;99.90;;;;;;4956341;29;20046;-65
2022/04/02 12:46:46;;;;;;;12.65;7.28;;;2.20;99.90;;;;;;4956588;29;20027;-66
2022/04/02 12:49:37;;;;;;;13.27;7.70;;;2.30;99.90;;;;;;4955836;29;20457;-65
2022/04/02 12:52:14;;;;;;;12.27;7.53;;;2.40;99.90;;;;;;4939809;29;20610;-66
2022/04/02 12:54:50;;;;;;;10.65;6.80;;;2.40;99.90;;;;;;4956135;29;20578;-66
2022/04/02 12:57:17;;;;;;;11.15;6.63;;;2.50;99.90;;;;;;4956400;29;20035;-66
2022/04/02 12:59:44;;;;;;;10.10;7.28;;;2.50;99.90;;;;;;4955875;29;20019;-65
2022/04/02 13:02:13;;;;;;;10.35;6.88;;;2.60;99.90;;;;;;4955810;29;20074;-66
2022/04/02 13:04:41;;;;;;;14.13;7.45;;;2.70;99.90;;;;;;4955580;29;20118;-66